createdAt,value
2022-10-18T00:00:55.806Z,16.84
2022-10-18T00:03:24.407Z,16.78
2022-10-18T00:05:52.780Z,17.02
2022-10-18T00:08:22.189Z,17.06
2022-10-18T00:10:50.752Z,16.99
2022-10-18T00:13:20.944Z,16.84
2022-10-18T00:15:52.209Z,16.76
2022-10-18T00:18:20.578Z,16.84
2022-10-18T00:20:58.428Z,16.87
2022-10-18T00:23:28.839Z,16.75
2022-10-18T00:26:01.545Z,16.59
2022-10-18T00:28:29.265Z,16.77
2022-10-18T00:30:56.935Z,17.01
2022-10-18T00:33:24.747Z,17.16
2022-10-18T00:35:52.492Z,17.49
2022-10-18T00:38:20.170Z,17.45
2022-10-18T00:40:49.217Z,17.55
2022-10-18T00:43:19.170Z,17.52
2022-10-18T00:45:49.152Z,17.43
2022-10-18T00:48:19.554Z,17.32
2022-10-18T00:50:49.042Z,17.27
2022-10-18T00:53:20.789Z,17.18
2022-10-18T00:55:50.178Z,17.18
2022-10-18T00:58:20.040Z,17.34
2022-10-18T01:00:48.084Z,17.21
2022-10-18T01:03:15.891Z,17.28
2022-10-18T01:05:48.799Z,17.23
2022-10-18T01:08:46.004Z,17.07
2022-10-18T01:11:44.956Z,16.99
2022-10-18T01:14:36.124Z,16.81
2022-10-18T01:17:15.125Z,16.90
2022-10-18T01:20:15.480Z,16.95
2022-10-18T01:22:46.376Z,16.96
2022-10-18T01:25:27.040Z,17.05
2022-10-18T01:28:02.676Z,16.90
2022-10-18T01:30:47.364Z,16.87
2022-10-18T01:33:23.931Z,16.95
2022-10-18T01:35:57.720Z,17.06
2022-10-18T01:38:27.008Z,17.15
2022-10-18T01:40:57.502Z,16.92
2022-10-18T01:43:30.634Z,17.21
2022-10-18T01:46:01.667Z,17.24
2022-10-18T01:48:30.721Z,17.30
2022-10-18T01:50:59.116Z,17.12
2022-10-18T01:53:30.921Z,16.55
2022-10-18T01:56:14.493Z,16.67
2022-10-18T01:58:49.699Z,16.78
2022-10-18T02:01:26.837Z,16.89
2022-10-18T02:03:58.023Z,16.89
2022-10-18T02:06:30.483Z,16.59
2022-10-18T02:09:05.235Z,16.67
2022-10-18T02:11:34.892Z,16.66
2022-10-18T02:14:08.258Z,16.57
2022-10-18T02:16:42.377Z,16.64
2022-10-18T02:19:14.190Z,16.90
2022-10-18T02:21:44.485Z,16.96
2022-10-18T02:24:13.982Z,16.87
2022-10-18T02:26:41.967Z,17.09
2022-10-18T02:29:10.489Z,17.17
2022-10-18T02:31:45.668Z,16.96
2022-10-18T02:34:20.707Z,17.04
2022-10-18T02:36:52.184Z,16.85
2022-10-18T02:39:24.458Z,17.17
2022-10-18T02:41:52.342Z,17.25
2022-10-18T02:44:20.023Z,17.20
2022-10-18T02:46:49.385Z,17.26
2022-10-18T02:49:17.140Z,17.33
2022-10-18T02:51:44.874Z,17.26
2022-10-18T02:54:12.559Z,17.26
2022-10-18T02:56:40.375Z,17.32
2022-10-18T02:59:08.215Z,17.28
2022-10-18T03:01:36.852Z,17.19
2022-10-18T03:04:06.652Z,17.02
2022-10-18T03:06:34.924Z,16.96
2022-10-18T03:09:03.433Z,17.04
2022-10-18T03:11:31.254Z,17.06
2022-10-18T03:13:59.540Z,17.00
2022-10-18T03:16:27.336Z,17.08
2022-10-18T03:18:55.094Z,17.14
2022-10-18T03:21:26.498Z,17.21
2022-10-18T03:23:56.595Z,17.22
2022-10-18T03:26:24.401Z,17.03
2022-10-18T03:28:52.329Z,17.24
2022-10-18T03:31:20.119Z,17.17
2022-10-18T03:33:47.881Z,17.29
2022-10-18T03:36:15.806Z,17.26
2022-10-18T03:38:44.852Z,17.10
2022-10-18T03:41:12.580Z,17.10
2022-10-18T03:43:40.344Z,17.08
2022-10-18T03:46:10.189Z,17.00
2022-10-18T03:48:37.883Z,17.07
2022-10-18T03:51:06.039Z,16.97
2022-10-18T03:53:33.719Z,17.08
2022-10-18T03:56:05.448Z,17.08
2022-10-18T04:00:26.842Z,17.04
2022-10-18T04:02:55.998Z,17.01
2022-10-18T04:05:26.871Z,16.89
2022-10-18T04:07:55.339Z,16.75
2022-10-18T04:10:23.308Z,16.72
2022-10-18T04:12:51.038Z,16.84
2022-10-18T04:15:18.990Z,16.79
2022-10-18T04:17:48.418Z,16.89
2022-10-18T04:20:16.344Z,16.87
2022-10-18T04:22:44.049Z,16.76
2022-10-18T04:25:14.041Z,16.85
2022-10-18T04:27:41.800Z,16.99
2022-10-18T04:30:10.410Z,16.89
2022-10-18T04:32:38.226Z,16.88
2022-10-18T04:35:08.220Z,16.95
2022-10-18T04:37:35.952Z,16.63
2022-10-18T04:40:04.110Z,16.75
2022-10-18T04:42:31.784Z,16.79
2022-10-18T04:45:01.635Z,16.72
2022-10-18T04:47:29.521Z,16.91
2022-10-18T04:49:57.622Z,16.85
2022-10-18T04:52:26.750Z,16.62
2022-10-18T04:54:54.555Z,16.63
2022-10-18T04:57:22.296Z,16.36
2022-10-18T04:59:49.979Z,16.24
2022-10-18T05:02:17.718Z,16.21
2022-10-18T05:04:45.429Z,16.13
2022-10-18T05:07:13.183Z,15.90
2022-10-18T05:09:42.414Z,16.09
2022-10-18T05:12:12.381Z,16.16
2022-10-18T05:14:40.127Z,16.14
2022-10-18T05:17:07.869Z,16.49
2022-10-18T05:19:35.598Z,16.53
2022-10-18T05:22:05.728Z,16.57
2022-10-18T05:24:33.523Z,16.63
2022-10-18T05:27:02.613Z,16.23
2022-10-18T05:29:30.332Z,15.88
2022-10-18T05:32:00.116Z,16.11
2022-10-18T05:34:31.832Z,16.41
2022-10-18T05:37:02.978Z,16.02
2022-10-18T05:39:30.855Z,15.92
2022-10-18T05:42:02.427Z,15.83
2022-10-18T05:44:30.148Z,15.73
2022-10-18T05:46:57.949Z,15.36
2022-10-18T05:49:25.689Z,15.19
2022-10-18T05:51:53.417Z,15.16
2022-10-18T05:54:21.227Z,14.93
2022-10-18T05:56:49.246Z,15.30
2022-10-18T05:59:18.337Z,15.55
2022-10-18T06:01:46.020Z,15.61
2022-10-18T06:04:13.802Z,15.35
2022-10-18T06:06:41.550Z,15.12
2022-10-18T06:09:09.484Z,15.16
2022-10-18T06:11:38.057Z,15.04
2022-10-18T06:14:06.024Z,14.98
2022-10-18T06:19:07.921Z,15.03
2022-10-18T06:21:35.647Z,15.39
2022-10-18T06:24:03.419Z,15.46
2022-10-18T06:26:31.235Z,15.41
2022-10-18T06:28:59.020Z,15.65
2022-10-18T06:31:26.804Z,15.92
2022-10-18T06:33:57.007Z,15.81
2022-10-18T06:36:25.081Z,16.11
2022-10-18T06:38:52.873Z,16.08
2022-10-18T06:41:21.951Z,16.25
2022-10-18T06:43:50.733Z,16.64
2022-10-18T06:46:18.456Z,16.72
2022-10-18T06:48:47.304Z,16.83
2022-10-18T06:51:16.431Z,16.91
2022-10-18T06:53:53.449Z,16.80
2022-10-18T06:56:32.004Z,16.76
2022-10-18T06:58:59.898Z,16.80
2022-10-18T07:01:28.452Z,16.75
2022-10-18T07:03:56.865Z,17.00
2022-10-18T07:06:26.028Z,16.96
2022-10-18T07:08:54.145Z,17.14
2022-10-18T07:11:25.121Z,17.28
2022-10-18T07:13:54.014Z,17.39
2022-10-18T07:16:22.164Z,17.38
2022-10-18T07:18:51.707Z,17.31
2022-10-18T07:21:21.596Z,17.39
2022-10-18T07:23:53.714Z,17.59
2022-10-18T07:26:23.550Z,17.72
2022-10-18T07:28:54.530Z,17.68
2022-10-18T07:31:23.598Z,17.47
2022-10-18T07:33:51.691Z,17.78
2022-10-18T07:36:21.095Z,17.79
2022-10-18T07:38:51.840Z,17.89
2022-10-18T07:41:19.836Z,17.82
2022-10-18T07:43:50.720Z,17.94
2022-10-18T07:46:19.533Z,18.25
2022-10-18T07:48:47.597Z,18.37
2022-10-18T07:51:15.726Z,18.43
2022-10-18T07:53:43.668Z,18.35
2022-10-18T07:56:16.800Z,18.36
2022-10-18T07:58:45.439Z,18.65
2022-10-18T08:01:14.210Z,18.85
2022-10-18T08:03:42.786Z,19.06
2022-10-18T08:06:12.591Z,19.24
2022-10-18T08:08:41.561Z,19.38
2022-10-18T08:11:12.714Z,19.42
2022-10-18T08:13:40.496Z,19.37
2022-10-18T08:16:10.137Z,19.35
2022-10-18T08:18:38.537Z,19.55
2022-10-18T08:21:08.387Z,19.61
2022-10-18T08:23:36.543Z,19.61
2022-10-18T08:26:05.743Z,19.67
2022-10-18T08:28:36.675Z,19.83
2022-10-18T08:31:05.349Z,19.74
2022-10-18T08:33:33.913Z,19.78
2022-10-18T08:36:05.679Z,19.84
2022-10-18T08:38:34.400Z,19.94
2022-10-18T08:41:15.595Z,19.91
2022-10-18T08:43:54.085Z,20.17
2022-10-18T08:46:22.165Z,20.15
2022-10-18T08:48:54.991Z,20.54
2022-10-18T08:51:30.234Z,20.77
2022-10-18T08:54:05.035Z,21.23
2022-10-18T08:56:34.511Z,21.36
2022-10-18T08:59:05.132Z,21.47
2022-10-18T09:01:43.023Z,21.86
2022-10-18T09:04:23.993Z,22.91
2022-10-18T09:07:05.547Z,22.90
2022-10-18T09:09:40.824Z,22.99
2022-10-18T09:12:27.909Z,23.00
2022-10-18T09:15:21.322Z,22.71
2022-10-18T09:18:04.721Z,20.97
2022-10-18T09:20:41.497Z,20.65
2022-10-18T09:23:20.030Z,20.72
2022-10-18T09:25:49.947Z,21.14
2022-10-18T09:28:33.339Z,20.62
2022-10-18T09:31:08.180Z,20.31
2022-10-18T09:33:46.946Z,21.46
2022-10-18T09:36:20.245Z,20.62
2022-10-18T09:38:50.548Z,21.46
2022-10-18T09:41:24.294Z,21.58
2022-10-18T09:43:57.323Z,20.97
2022-10-18T09:46:30.167Z,21.04
2022-10-18T09:49:02.115Z,21.32
2022-10-18T09:51:35.083Z,22.20
2022-10-18T09:54:20.062Z,21.51
2022-10-18T09:56:50.914Z,21.50
2022-10-18T09:59:36.840Z,21.85
2022-10-18T10:02:07.284Z,21.84
2022-10-18T10:04:35.199Z,22.66
2022-10-18T10:07:10.248Z,22.62
2022-10-18T10:09:45.302Z,22.40
2022-10-18T10:12:28.621Z,22.20
2022-10-18T10:15:07.347Z,21.61
2022-10-18T10:17:38.887Z,22.16
2022-10-18T10:20:19.708Z,22.30
2022-10-18T10:22:49.082Z,22.42
2022-10-18T10:25:24.043Z,21.71
2022-10-18T10:27:52.118Z,22.44
2022-10-18T10:30:25.058Z,23.23
2022-10-18T10:32:57.964Z,23.67
2022-10-18T10:38:24.982Z,23.75
2022-10-18T10:40:53.611Z,23.79
2022-10-18T10:43:36.938Z,24.23
2022-10-18T10:46:09.691Z,24.24
2022-10-18T10:48:48.182Z,24.59
2022-10-18T10:51:18.453Z,24.95
2022-10-18T10:53:52.392Z,24.66
2022-10-18T10:56:26.633Z,25.14
2022-10-18T10:58:56.716Z,24.98
2022-10-18T11:01:30.312Z,24.07
2022-10-18T11:04:04.494Z,24.99
2022-10-18T11:06:57.811Z,25.21
2022-10-18T11:09:38.255Z,25.17
2022-10-18T11:12:23.716Z,25.05
2022-10-18T11:14:57.403Z,24.39
2022-10-18T11:17:33.140Z,24.73
2022-10-18T11:20:14.726Z,25.02
2022-10-18T11:22:50.970Z,24.39
2022-10-18T11:25:24.051Z,24.92
2022-10-18T11:28:00.318Z,24.53
2022-10-18T11:30:42.051Z,23.94
2022-10-18T11:33:29.526Z,23.90
2022-10-18T11:36:17.048Z,23.53
2022-10-18T11:38:54.506Z,23.28
2022-10-18T11:41:32.231Z,23.25
2022-10-18T11:44:03.712Z,23.19
2022-10-18T11:46:50.223Z,22.84
2022-10-18T11:49:37.295Z,22.82
2022-10-18T11:52:14.332Z,22.89
2022-10-18T11:54:57.513Z,23.16
2022-10-18T11:57:41.365Z,23.42
2022-10-18T12:00:20.134Z,23.15
2022-10-18T12:03:29.114Z,23.14
2022-10-18T12:06:02.803Z,22.54
2022-10-18T12:08:37.165Z,22.86
2022-10-18T12:11:13.593Z,22.38
2022-10-18T12:13:47.914Z,22.16
2022-10-18T12:16:17.414Z,23.47
2022-10-18T12:21:29.380Z,23.87
2022-10-18T12:24:03.322Z,23.70
2022-10-18T12:26:33.793Z,23.07
2022-10-18T12:29:17.012Z,23.25
2022-10-18T12:31:49.023Z,23.46
2022-10-18T12:34:27.717Z,23.31
2022-10-18T12:37:15.483Z,23.54
2022-10-18T12:40:09.034Z,22.85
2022-10-18T12:42:42.483Z,23.21
2022-10-18T12:45:24.804Z,23.45
2022-10-18T12:47:53.105Z,23.71
2022-10-18T12:50:31.928Z,23.66
2022-10-18T12:53:19.862Z,23.51
2022-10-18T12:55:51.317Z,23.19
2022-10-18T12:58:31.398Z,22.93
2022-10-18T13:01:04.601Z,23.25
2022-10-18T13:03:50.856Z,23.09
2022-10-18T13:06:21.580Z,23.46
2022-10-18T13:09:20.193Z,22.95
2022-10-18T13:11:49.729Z,23.57
2022-10-18T13:14:48.186Z,23.57
2022-10-18T13:17:35.380Z,23.79
2022-10-18T13:20:27.722Z,23.87
2022-10-18T13:23:09.021Z,24.16
2022-10-18T13:25:51.510Z,24.06
2022-10-18T13:28:29.085Z,23.83
2022-10-18T13:31:02.045Z,23.93
2022-10-18T13:33:34.482Z,23.48
2022-10-18T13:36:05.172Z,23.03
2022-10-18T13:38:50.358Z,23.01
2022-10-18T13:41:20.459Z,23.40
2022-10-18T13:43:57.981Z,23.27
2022-10-18T13:46:46.216Z,23.23
2022-10-18T13:49:30.737Z,22.76
2022-10-18T13:52:08.464Z,23.09
2022-10-18T13:54:59.971Z,23.08
2022-10-18T13:57:47.875Z,23.48
2022-10-18T14:00:31.336Z,23.85
2022-10-18T14:03:55.771Z,23.03
2022-10-18T14:06:24.892Z,22.91
2022-10-18T14:08:58.741Z,22.77
2022-10-18T14:11:35.033Z,22.82
2022-10-18T14:14:13.012Z,23.06
2022-10-18T14:16:47.610Z,22.83
2022-10-18T14:19:22.670Z,22.53
2022-10-18T14:21:56.082Z,22.58
2022-10-18T14:24:26.442Z,22.88
2022-10-18T14:27:12.744Z,23.02
2022-10-18T14:29:41.150Z,23.00
2022-10-18T14:32:10.674Z,22.72
2022-10-18T14:34:38.833Z,22.68
2022-10-18T14:37:07.929Z,22.22
2022-10-18T14:39:39.825Z,22.47
2022-10-18T14:42:21.376Z,22.52
2022-10-18T14:44:54.431Z,22.42
2022-10-18T14:47:25.534Z,22.36
2022-10-18T14:49:54.646Z,22.01
2022-10-18T14:52:30.463Z,22.04
2022-10-18T14:55:01.713Z,21.86
2022-10-18T14:57:32.885Z,21.90
2022-10-18T15:00:03.442Z,21.74
2022-10-18T15:02:37.920Z,21.47
2022-10-18T15:05:09.099Z,21.48
2022-10-18T15:07:38.596Z,21.90
2022-10-18T15:10:07.715Z,21.43
2022-10-18T15:12:45.637Z,21.04
2022-10-18T15:15:28.679Z,21.69
2022-10-18T15:17:56.929Z,21.95
2022-10-18T15:20:27.244Z,22.03
2022-10-18T15:23:21.897Z,21.51
2022-10-18T15:25:50.364Z,21.59
2022-10-18T15:28:29.089Z,21.63
2022-10-18T15:30:58.694Z,21.50
2022-10-18T15:33:27.861Z,21.32
2022-10-18T15:35:55.835Z,21.75
2022-10-18T15:38:29.254Z,21.55
2022-10-18T15:40:57.011Z,21.82
2022-10-18T15:43:36.694Z,21.45
2022-10-18T15:46:06.966Z,21.35
2022-10-18T15:48:38.339Z,21.26
2022-10-18T15:51:07.664Z,21.23
2022-10-18T15:53:54.937Z,21.43
2022-10-18T15:56:32.684Z,21.44
2022-10-18T15:59:03.931Z,21.38
2022-10-18T16:01:38.252Z,21.20
2022-10-18T16:04:12.200Z,21.45
2022-10-18T16:06:40.007Z,21.21
2022-10-18T16:09:14.037Z,21.18
2022-10-18T16:11:41.751Z,21.53
2022-10-18T16:14:09.695Z,21.66
2022-10-18T16:16:41.033Z,21.46
2022-10-18T16:19:11.070Z,21.39
2022-10-18T16:21:39.963Z,21.30
2022-10-18T16:24:11.244Z,21.28
2022-10-18T16:26:39.704Z,21.36
2022-10-18T16:29:07.834Z,21.55
2022-10-18T16:31:35.703Z,21.58
2022-10-18T16:34:04.108Z,21.36
2022-10-18T16:36:34.136Z,21.33
2022-10-18T16:39:04.507Z,21.48
2022-10-18T16:41:33.598Z,21.56
2022-10-18T16:44:01.307Z,21.37
2022-10-18T16:46:31.300Z,21.36
2022-10-18T16:48:59.096Z,21.23
2022-10-18T16:51:27.334Z,21.37
2022-10-18T16:53:55.294Z,21.41
2022-10-18T16:56:25.906Z,21.44
2022-10-18T16:58:55.346Z,21.43
2022-10-18T17:01:24.974Z,21.42
2022-10-18T17:03:53.381Z,21.26
2022-10-18T17:06:24.249Z,21.19
2022-10-18T17:08:53.310Z,21.19
2022-10-18T17:11:23.034Z,21.29
2022-10-18T17:13:50.927Z,21.20
2022-10-18T17:19:01.601Z,21.02
2022-10-18T17:21:31.392Z,21.01
2022-10-18T17:24:00.484Z,20.90
2022-10-18T17:26:29.692Z,20.48
2022-10-18T17:29:00.403Z,19.94
2022-10-18T17:31:30.694Z,19.44
2022-10-18T17:34:21.193Z,19.55
2022-10-18T17:36:51.704Z,19.39
2022-10-18T17:39:19.674Z,19.47
2022-10-18T17:41:47.365Z,19.34
2022-10-18T17:44:15.059Z,19.44
2022-10-18T17:46:43.091Z,19.76
2022-10-18T17:49:10.828Z,19.96
2022-10-18T17:51:41.072Z,19.86
2022-10-18T17:54:08.924Z,20.15
2022-10-18T17:56:36.730Z,20.20
2022-10-18T17:59:06.974Z,20.01
2022-10-18T18:01:35.079Z,20.09
2022-10-18T18:04:04.177Z,20.22
2022-10-18T18:06:34.016Z,20.02
2022-10-18T18:09:08.018Z,20.16
2022-10-18T18:11:36.515Z,20.18
2022-10-18T18:14:08.843Z,20.19
2022-10-18T18:16:37.677Z,20.21
2022-10-18T18:19:09.676Z,20.18
2022-10-18T18:21:38.919Z,20.13
2022-10-18T18:24:09.963Z,20.13
2022-10-18T18:26:39.528Z,20.04
2022-10-18T18:29:07.729Z,19.93
2022-10-18T18:31:40.063Z,19.79
2022-10-18T18:34:10.515Z,19.60
2022-10-18T18:36:38.297Z,19.49
2022-10-18T18:39:08.891Z,19.46
2022-10-18T18:41:38.320Z,18.77
2022-10-18T18:44:07.269Z,18.61
2022-10-18T18:46:38.560Z,18.51
2022-10-18T18:49:07.170Z,18.49
2022-10-18T18:51:37.369Z,18.45
2022-10-18T18:54:05.588Z,18.69
2022-10-18T18:56:34.761Z,18.87
2022-10-18T18:59:02.556Z,18.94
2022-10-18T19:01:32.669Z,19.03
2022-10-18T19:04:01.583Z,19.10
2022-10-18T19:06:31.465Z,19.08
2022-10-18T19:09:03.963Z,19.07
2022-10-18T19:11:35.521Z,19.01
2022-10-18T19:14:04.075Z,19.01
2022-10-18T19:16:32.930Z,18.75
2022-10-18T19:19:02.484Z,18.44
2022-10-18T19:21:32.784Z,18.49
2022-10-18T19:24:03.430Z,18.50
2022-10-18T19:26:36.594Z,18.59
2022-10-18T19:29:08.704Z,18.64
2022-10-18T19:31:36.571Z,18.55
2022-10-18T19:34:05.373Z,18.49
2022-10-18T19:36:33.509Z,18.49
2022-10-18T19:39:01.940Z,18.44
2022-10-18T19:41:29.708Z,18.36
2022-10-18T19:43:58.889Z,18.36
2022-10-18T19:46:27.183Z,17.65
2022-10-18T19:48:54.997Z,17.80
2022-10-18T19:51:27.028Z,17.97
2022-10-18T19:53:57.219Z,17.95
2022-10-18T19:56:28.646Z,17.62
2022-10-18T19:59:00.534Z,17.71
2022-10-18T20:01:29.541Z,17.84
2022-10-18T20:03:57.567Z,17.80
2022-10-18T20:06:25.464Z,17.84
2022-10-18T20:08:53.613Z,17.85
2022-10-18T20:11:26.470Z,17.68
2022-10-18T20:13:54.233Z,17.77
2022-10-18T20:16:28.642Z,17.83
2022-10-18T20:19:00.490Z,17.76
2022-10-18T20:21:29.869Z,17.66
2022-10-18T20:23:57.897Z,17.72
2022-10-18T20:26:26.058Z,17.78
2022-10-18T20:28:57.589Z,17.88
2022-10-18T20:31:28.700Z,17.94
2022-10-18T20:33:58.137Z,17.86
2022-10-18T20:36:26.771Z,17.91
2022-10-18T20:38:55.151Z,17.90
2022-10-18T20:41:25.771Z,17.86
2022-10-18T20:43:54.594Z,17.82
2022-10-18T20:46:23.291Z,17.79
2022-10-18T20:48:53.448Z,17.76
2022-10-18T20:51:22.291Z,17.48
2022-10-18T20:53:50.440Z,17.46
2022-10-18T20:56:20.602Z,17.51
2022-10-18T20:58:52.414Z,17.59
2022-10-18T21:01:22.495Z,17.53
2022-10-18T21:03:53.399Z,17.53
2022-10-18T21:06:23.145Z,17.56
2022-10-18T21:08:54.498Z,17.55
2022-10-18T21:11:22.323Z,17.52
2022-10-18T21:13:53.114Z,17.50
2022-10-18T21:16:20.899Z,17.48
2022-10-18T21:18:49.236Z,17.38
2022-10-18T21:21:20.105Z,17.31
2022-10-18T21:23:48.419Z,17.31
2022-10-18T21:26:18.352Z,17.28
2022-10-18T21:28:46.656Z,17.19
2022-10-18T21:31:17.945Z,17.20
2022-10-18T21:33:46.957Z,17.26
2022-10-18T21:36:15.800Z,17.19
2022-10-18T21:38:46.622Z,16.84
2022-10-18T21:41:15.558Z,16.69
2022-10-18T21:43:45.360Z,16.68
2022-10-18T21:46:14.755Z,16.77
2022-10-18T21:48:44.475Z,16.83
2022-10-18T21:51:17.562Z,16.80
2022-10-18T21:53:48.560Z,16.39
2022-10-18T21:56:18.321Z,16.35
2022-10-18T21:58:46.659Z,16.29
2022-10-18T22:01:16.248Z,16.39
2022-10-18T22:03:45.472Z,16.52
2022-10-18T22:06:15.236Z,16.57
2022-10-18T22:08:44.057Z,16.64
2022-10-18T22:11:14.579Z,16.62
2022-10-18T22:13:45.140Z,16.62
2022-10-18T22:16:15.554Z,16.60
2022-10-18T22:18:47.452Z,16.62
2022-10-18T22:21:17.370Z,16.70
2022-10-18T22:23:47.096Z,16.63
2022-10-18T22:26:18.550Z,16.47
2022-10-18T22:28:47.578Z,16.50
2022-10-18T22:31:17.057Z,16.31
2022-10-18T22:33:45.965Z,16.33
2022-10-18T22:36:14.464Z,16.51
2022-10-18T22:38:42.409Z,16.63
2022-10-18T22:41:12.337Z,16.45
2022-10-18T22:43:41.487Z,16.53
2022-10-18T22:46:13.083Z,16.51
2022-10-18T22:48:41.559Z,16.55
2022-10-18T22:51:10.236Z,16.66
2022-10-18T22:53:38.958Z,16.63
2022-10-18T22:56:08.229Z,16.66
2022-10-18T22:58:36.073Z,16.50
2022-10-18T23:01:09.563Z,16.35
2022-10-18T23:03:38.277Z,16.31
2022-10-18T23:06:15.830Z,16.47
2022-10-18T23:08:43.579Z,16.51
2022-10-18T23:11:11.345Z,16.50
2022-10-18T23:13:39.698Z,15.72
2022-10-18T23:16:09.221Z,15.72
2022-10-18T23:18:37.502Z,16.04
2022-10-18T23:21:07.093Z,16.21
2022-10-18T23:23:36.431Z,15.73
2022-10-18T23:26:08.364Z,15.18
2022-10-18T23:28:37.521Z,15.41
2022-10-18T23:31:12.268Z,15.64
2022-10-18T23:33:42.585Z,15.77
2022-10-18T23:36:10.655Z,15.89
2022-10-18T23:38:39.475Z,16.02
2022-10-18T23:41:08.881Z,16.05
2022-10-18T23:43:36.864Z,16.24
2022-10-18T23:46:07.580Z,16.10
2022-10-18T23:48:37.294Z,16.19
2022-10-18T23:51:05.604Z,16.03
2022-10-18T23:53:33.987Z,16.05
2022-10-18T23:56:04.162Z,16.10
2022-10-18T23:58:33.505Z,16.04
